createdAt,value
2023-08-01T00:01:14.467Z,20.50
2023-08-01T00:03:43.060Z,20.46
2023-08-01T00:06:11.504Z,20.42
2023-08-01T00:08:39.877Z,20.35
2023-08-01T00:11:08.580Z,20.35
2023-08-01T00:13:36.914Z,20.35
2023-08-01T00:16:08.099Z,20.39
2023-08-01T00:18:37.137Z,20.41
2023-08-01T00:21:11.500Z,20.44
2023-08-01T00:23:40.081Z,20.44
2023-08-01T00:26:08.449Z,20.43
2023-08-01T00:28:36.853Z,20.40
2023-08-01T00:31:06.819Z,20.39
2023-08-01T00:33:35.407Z,20.27
2023-08-01T00:36:04.079Z,20.21
2023-08-01T00:38:32.444Z,20.23
2023-08-01T00:41:00.936Z,20.22
2023-08-01T00:43:29.364Z,20.12
2023-08-01T00:46:02.094Z,20.01
2023-08-01T00:48:31.494Z,19.93
2023-08-01T00:51:01.492Z,19.85
2023-08-01T00:53:30.172Z,19.93
2023-08-01T00:55:59.614Z,20.01
2023-08-01T00:58:28.018Z,20.05
2023-08-01T01:01:01.125Z,20.04
2023-08-01T01:03:30.946Z,20.05
2023-08-01T01:06:23.200Z,20.07
2023-08-01T01:08:51.967Z,19.97
2023-08-01T01:11:20.627Z,20.01
2023-08-01T01:13:49.073Z,20.06
2023-08-01T01:16:17.492Z,20.11
2023-08-01T01:18:45.982Z,20.08
2023-08-01T01:21:14.386Z,20.07
2023-08-01T01:24:00.892Z,20.15
2023-08-01T01:26:29.894Z,20.24
2023-08-01T01:28:58.352Z,20.21
2023-08-01T01:31:27.290Z,20.20
2023-08-01T01:33:56.356Z,20.24
2023-08-01T01:36:24.777Z,20.27
2023-08-01T01:38:53.151Z,20.25
2023-08-01T01:41:21.815Z,20.11
2023-08-01T01:43:50.320Z,20.11
2023-08-01T01:46:18.942Z,19.94
2023-08-01T01:48:47.660Z,19.90
2023-08-01T01:51:16.221Z,19.94
2023-08-01T01:53:44.638Z,19.96
2023-08-01T01:56:13.131Z,19.99
2023-08-01T01:58:41.796Z,19.98
2023-08-01T02:01:10.398Z,19.96
2023-08-01T02:03:38.852Z,19.98
2023-08-01T02:06:07.305Z,19.96
2023-08-01T02:08:35.682Z,19.98
2023-08-01T02:11:04.296Z,19.94
2023-08-01T02:13:35.410Z,19.94
2023-08-01T02:16:04.318Z,19.96
2023-08-01T02:18:32.847Z,19.98
2023-08-01T02:21:01.284Z,20.00
2023-08-01T02:23:30.391Z,19.99
2023-08-01T02:25:58.766Z,19.94
2023-08-01T02:28:27.160Z,19.85
2023-08-01T02:30:55.615Z,19.82
2023-08-01T02:33:24.093Z,19.75
2023-08-01T02:35:52.569Z,19.67
2023-08-01T02:38:20.977Z,19.53
2023-08-01T02:40:49.322Z,19.54
2023-08-01T02:43:18.613Z,19.54
2023-08-01T02:45:47.115Z,19.54
2023-08-01T02:48:15.525Z,19.56
2023-08-01T02:50:44.071Z,19.55
2023-08-01T02:53:12.629Z,19.47
2023-08-01T02:55:41.244Z,19.46
2023-08-01T02:58:09.837Z,19.42
2023-08-01T03:00:41.766Z,19.39
2023-08-01T03:03:10.463Z,19.33
2023-08-01T03:05:39.039Z,19.25
2023-08-01T03:08:07.474Z,19.17
2023-08-01T03:10:37.683Z,19.09
2023-08-01T03:13:06.240Z,19.11
2023-08-01T03:15:34.604Z,19.11
2023-08-01T03:18:03.173Z,19.04
2023-08-01T03:20:31.592Z,19.03
2023-08-01T03:23:00.000Z,19.08
2023-08-01T03:25:28.485Z,19.08
2023-08-01T03:27:58.015Z,19.07
2023-08-01T03:30:26.866Z,19.20
2023-08-01T03:32:56.556Z,19.28
2023-08-01T03:35:25.319Z,19.23
2023-08-01T03:37:54.229Z,19.27
2023-08-01T03:40:22.787Z,19.27
2023-08-01T03:42:51.174Z,19.31
2023-08-01T03:45:19.581Z,19.30
2023-08-01T03:47:48.040Z,19.37
2023-08-01T03:50:16.973Z,19.42
2023-08-01T03:52:45.429Z,19.44
2023-08-01T03:55:14.027Z,19.41
2023-08-01T03:57:44.658Z,19.45
2023-08-01T04:00:16.055Z,19.53
2023-08-01T04:02:48.729Z,19.47
2023-08-01T04:05:20.248Z,19.49
2023-08-01T04:07:48.819Z,19.55
2023-08-01T04:10:17.289Z,19.63
2023-08-01T04:12:45.846Z,19.64
2023-08-01T04:15:14.246Z,19.59
2023-08-01T04:17:42.707Z,19.55
2023-08-01T04:20:11.411Z,19.59
2023-08-01T04:22:39.857Z,19.70
2023-08-01T04:25:08.808Z,19.76
2023-08-01T04:27:37.174Z,19.80
2023-08-01T04:30:06.174Z,19.78
2023-08-01T04:32:34.688Z,19.90
2023-08-01T04:35:03.272Z,19.99
2023-08-01T04:37:31.652Z,20.14
2023-08-01T04:40:00.172Z,20.22
2023-08-01T04:42:28.717Z,20.09
2023-08-01T04:44:57.120Z,20.19
2023-08-01T04:47:25.614Z,20.18
2023-08-01T04:49:54.045Z,20.22
2023-08-01T04:52:22.614Z,20.26
2023-08-01T04:54:50.954Z,20.31
2023-08-01T04:57:19.465Z,20.36
2023-08-01T04:59:47.906Z,20.42
2023-08-01T05:02:16.443Z,20.52
2023-08-01T05:04:44.887Z,20.62
2023-08-01T05:07:14.532Z,20.57
2023-08-01T05:09:43.908Z,20.57
2023-08-01T05:12:12.448Z,20.66
2023-08-01T05:14:40.958Z,20.75
2023-08-01T05:17:09.394Z,20.69
2023-08-01T05:19:37.812Z,20.67
2023-08-01T05:22:06.545Z,20.71
2023-08-01T05:24:35.024Z,20.79
2023-08-01T05:27:03.916Z,20.62
2023-08-01T05:29:32.302Z,20.64
2023-08-01T05:32:01.065Z,20.76
2023-08-01T05:34:29.341Z,20.89
2023-08-01T05:36:57.864Z,20.97
2023-08-01T05:39:26.276Z,21.05
2023-08-01T05:41:54.666Z,21.10
2023-08-01T05:44:23.304Z,21.22
2023-08-01T05:46:51.784Z,21.27
2023-08-01T05:49:20.276Z,21.31
2023-08-01T05:51:48.660Z,21.39
2023-08-01T05:54:17.121Z,21.48
2023-08-01T05:56:45.539Z,21.48
2023-08-01T05:59:14.604Z,21.59
2023-08-01T06:01:43.414Z,21.69
2023-08-01T06:04:12.073Z,21.78
2023-08-01T06:06:41.122Z,21.87
2023-08-01T06:09:09.834Z,21.96
2023-08-01T06:11:38.264Z,21.99
2023-08-01T06:14:06.682Z,21.88
2023-08-01T06:16:35.312Z,21.89
2023-08-01T06:19:04.037Z,21.94
2023-08-01T06:21:32.540Z,22.01
2023-08-01T06:24:01.022Z,22.04
2023-08-01T06:26:39.771Z,22.08
2023-08-01T06:29:21.658Z,22.08
2023-08-01T06:31:52.701Z,22.17
2023-08-01T06:34:21.301Z,22.25
2023-08-01T06:36:49.733Z,22.30
2023-08-01T06:39:18.125Z,22.34
2023-08-01T06:41:46.603Z,22.29
2023-08-01T06:44:14.968Z,22.26
2023-08-01T06:46:44.011Z,22.40
2023-08-01T06:49:12.555Z,22.42
2023-08-01T06:51:42.904Z,22.37
2023-08-01T06:54:11.683Z,22.43
2023-08-01T06:56:40.462Z,22.50
2023-08-01T06:59:08.977Z,22.47
2023-08-01T07:01:40.427Z,22.55
2023-08-01T07:04:08.705Z,22.69
2023-08-01T07:06:37.212Z,22.74
2023-08-01T07:09:05.707Z,22.79
2023-08-01T07:11:34.381Z,22.69
2023-08-01T07:14:02.897Z,22.80
2023-08-01T07:16:31.838Z,22.90
2023-08-01T07:19:06.495Z,22.90
2023-08-01T07:21:36.037Z,22.85
2023-08-01T07:24:04.962Z,22.75
2023-08-01T07:26:33.526Z,22.67
2023-08-01T07:29:01.909Z,22.70
2023-08-01T07:31:31.415Z,22.75
2023-08-01T07:34:00.029Z,22.69
2023-08-01T07:36:29.747Z,22.71
2023-08-01T07:38:58.105Z,22.75
2023-08-01T07:41:26.720Z,22.79
2023-08-01T07:43:55.196Z,22.77
2023-08-01T07:46:23.651Z,22.91
2023-08-01T07:48:54.841Z,22.93
2023-08-01T07:51:23.384Z,23.05
2023-08-01T07:53:53.121Z,23.11
2023-08-01T07:56:21.636Z,23.17
2023-08-01T07:58:56.404Z,23.16
2023-08-01T08:01:25.087Z,23.24
2023-08-01T08:03:53.608Z,23.29
2023-08-01T08:06:25.492Z,23.35
2023-08-01T08:08:53.935Z,23.40
2023-08-01T08:11:22.554Z,23.47
2023-08-01T08:13:51.185Z,23.51
2023-08-01T08:16:20.172Z,23.55
2023-08-01T08:18:48.691Z,23.63
2023-08-01T08:21:17.177Z,23.69
2023-08-01T08:23:45.778Z,23.73
2023-08-01T08:26:14.197Z,23.83
2023-08-01T08:28:43.818Z,23.94
2023-08-01T08:31:12.388Z,23.99
2023-08-01T08:33:40.879Z,23.99
2023-08-01T08:36:09.266Z,23.98
2023-08-01T08:38:37.676Z,24.05
2023-08-01T08:41:15.297Z,24.11
2023-08-01T08:43:43.923Z,24.19
2023-08-01T08:46:13.595Z,24.12
2023-08-01T08:48:42.731Z,24.19
2023-08-01T08:51:12.179Z,24.23
2023-08-01T08:53:41.663Z,24.35
2023-08-01T08:56:11.003Z,24.50
2023-08-01T08:58:40.272Z,24.64
2023-08-01T09:01:09.526Z,24.70
2023-08-01T09:03:38.248Z,24.84
2023-08-01T09:06:15.757Z,24.85
2023-08-01T09:09:08.459Z,25.06
2023-08-01T09:11:48.466Z,25.15
2023-08-01T09:14:17.920Z,25.21
2023-08-01T09:16:48.108Z,25.28
2023-08-01T09:19:20.905Z,25.38
2023-08-01T09:21:49.588Z,25.50
2023-08-01T09:24:21.946Z,25.61
2023-08-01T09:26:50.915Z,25.67
2023-08-01T09:29:19.972Z,25.72
2023-08-01T09:31:49.227Z,25.71
2023-08-01T09:34:25.426Z,25.65
2023-08-01T09:37:01.233Z,25.58
2023-08-01T09:39:30.015Z,25.57
2023-08-01T09:41:59.808Z,25.49
2023-08-01T09:44:29.913Z,25.49
2023-08-01T09:47:00.181Z,25.35
2023-08-01T09:49:32.531Z,25.33
2023-08-01T09:52:02.908Z,25.39
2023-08-01T09:54:31.356Z,25.50
2023-08-01T09:57:01.636Z,25.69
2023-08-01T09:59:31.514Z,25.84
2023-08-01T10:02:02.582Z,26.01
2023-08-01T10:04:31.995Z,26.16
2023-08-01T10:07:04.066Z,26.27
2023-08-01T10:09:32.882Z,26.37
2023-08-01T10:12:01.528Z,26.47
2023-08-01T10:14:30.178Z,26.58
2023-08-01T10:16:59.278Z,26.69
2023-08-01T10:19:27.958Z,26.77
2023-08-01T10:21:56.945Z,26.84
2023-08-01T10:24:28.485Z,26.87
2023-08-01T10:26:57.098Z,27.00
2023-08-01T10:29:38.214Z,27.16
2023-08-01T10:32:09.060Z,27.29
2023-08-01T10:34:37.788Z,27.44
2023-08-01T10:37:06.390Z,27.49
2023-08-01T10:39:34.995Z,27.47
2023-08-01T10:42:05.190Z,27.57
2023-08-01T10:44:35.680Z,27.71
2023-08-01T10:47:05.982Z,27.86
2023-08-01T10:49:44.143Z,27.89
2023-08-01T10:52:19.408Z,27.95
2023-08-01T10:54:48.132Z,28.06
2023-08-01T10:57:21.143Z,28.17
2023-08-01T10:59:49.625Z,28.14
2023-08-01T11:02:25.500Z,28.01
2023-08-01T11:04:58.941Z,28.02
2023-08-01T11:07:28.037Z,28.15
2023-08-01T11:10:23.550Z,28.32
2023-08-01T11:12:52.092Z,28.47
2023-08-01T11:15:21.065Z,28.64
2023-08-01T11:17:54.118Z,28.82
2023-08-01T11:20:24.527Z,28.97
2023-08-01T11:23:01.149Z,29.09
2023-08-01T11:25:50.473Z,29.21
2023-08-01T11:28:19.076Z,29.37
2023-08-01T11:30:48.082Z,29.47
2023-08-01T11:33:17.229Z,29.41
2023-08-01T11:35:45.797Z,29.35
2023-08-01T11:38:14.203Z,29.37
2023-08-01T11:40:43.925Z,29.66
2023-08-01T11:43:12.406Z,29.82
2023-08-01T11:45:52.913Z,30.01
2023-08-01T11:48:25.040Z,30.19
2023-08-01T11:51:00.048Z,30.34
2023-08-01T11:53:29.605Z,30.44
2023-08-01T11:55:58.309Z,30.50
2023-08-01T11:58:37.476Z,30.59
2023-08-01T12:01:14.729Z,30.65
2023-08-01T12:03:54.229Z,30.77
2023-08-01T12:06:24.695Z,30.91
2023-08-01T12:08:54.336Z,31.07
2023-08-01T12:11:31.334Z,31.15
2023-08-01T12:14:16.049Z,30.99
2023-08-01T12:16:47.456Z,30.93
2023-08-01T12:19:20.773Z,31.06
2023-08-01T12:21:50.020Z,31.22
2023-08-01T12:24:18.570Z,31.47
2023-08-01T12:26:46.978Z,31.72
2023-08-01T12:29:15.329Z,31.71
2023-08-01T12:31:43.951Z,31.93
2023-08-01T12:34:12.529Z,31.95
2023-08-01T12:36:41.180Z,32.02
2023-08-01T12:39:13.006Z,31.96
2023-08-01T12:41:41.436Z,31.96
2023-08-01T12:44:09.809Z,32.22
2023-08-01T12:46:38.410Z,32.47
2023-08-01T12:49:07.005Z,32.66
2023-08-01T12:51:35.386Z,32.67
2023-08-01T12:54:03.943Z,32.87
2023-08-01T12:56:32.436Z,33.20
2023-08-01T12:59:00.832Z,33.64
2023-08-01T13:01:29.355Z,33.96
2023-08-01T13:03:57.930Z,34.26
2023-08-01T13:06:26.558Z,34.44
2023-08-01T13:08:55.026Z,34.71
2023-08-01T13:11:23.499Z,34.70
2023-08-01T13:13:52.015Z,34.16
2023-08-01T13:16:20.507Z,34.23
2023-08-01T13:18:49.636Z,34.58
2023-08-01T13:21:18.124Z,34.95
2023-08-01T13:23:46.549Z,35.08
2023-08-01T13:26:15.103Z,35.32
2023-08-01T13:28:43.538Z,35.50
2023-08-01T13:31:12.027Z,35.72
2023-08-01T13:33:40.515Z,35.76
2023-08-01T13:36:09.112Z,35.91
2023-08-01T13:38:37.583Z,36.10
2023-08-01T13:41:06.060Z,36.25
2023-08-01T13:43:34.641Z,36.35
2023-08-01T13:46:23.860Z,36.59
2023-08-01T13:48:58.147Z,36.64
2023-08-01T13:51:26.650Z,36.22
2023-08-01T13:53:56.469Z,36.42
2023-08-01T13:56:25.108Z,36.54
2023-08-01T13:58:53.636Z,36.52
2023-08-01T14:01:22.101Z,36.22
2023-08-01T14:03:50.593Z,36.21
2023-08-01T14:06:19.415Z,36.33
2023-08-01T14:08:48.014Z,36.28
2023-08-01T14:11:16.472Z,36.54
2023-08-01T14:13:44.885Z,36.59
2023-08-01T14:16:13.455Z,36.65
2023-08-01T14:18:42.829Z,36.92
2023-08-01T14:21:11.271Z,37.04
2023-08-01T14:23:40.259Z,36.73
2023-08-01T14:26:08.636Z,36.62
2023-08-01T14:28:37.076Z,36.78
2023-08-01T14:31:05.880Z,36.85
2023-08-01T14:33:34.648Z,36.79
2023-08-01T14:36:03.263Z,36.60
2023-08-01T14:38:31.862Z,36.30
2023-08-01T14:41:07.476Z,36.18
2023-08-01T14:43:40.140Z,35.32
2023-08-01T14:46:08.667Z,35.06
2023-08-01T14:48:37.040Z,34.72
2023-08-01T14:51:08.945Z,34.38
2023-08-01T14:53:37.331Z,34.36
2023-08-01T14:56:08.010Z,34.41
2023-08-01T14:58:41.107Z,34.47
2023-08-01T15:01:16.335Z,34.72
2023-08-01T15:03:44.843Z,35.07
2023-08-01T15:06:14.505Z,35.40
2023-08-01T15:08:43.246Z,35.49
2023-08-01T15:11:11.748Z,35.54
2023-08-01T15:13:40.302Z,35.38
2023-08-01T15:16:15.864Z,35.14
2023-08-01T15:18:44.606Z,34.59
2023-08-01T15:21:12.975Z,34.18
2023-08-01T15:23:41.509Z,33.88
2023-08-01T15:26:10.069Z,33.61
2023-08-01T15:28:38.417Z,33.30
2023-08-01T15:31:08.312Z,33.00
2023-08-01T15:33:38.673Z,32.74
2023-08-01T15:36:08.454Z,32.36
2023-08-01T15:38:38.577Z,32.16
2023-08-01T15:41:10.560Z,32.05
2023-08-01T15:43:40.830Z,31.83
2023-08-01T15:46:10.467Z,31.64
2023-08-01T15:48:39.198Z,31.46
2023-08-01T15:51:08.152Z,31.32
2023-08-01T15:53:37.111Z,31.19
2023-08-01T15:56:08.082Z,31.19
2023-08-01T15:58:36.484Z,31.30
2023-08-01T16:01:05.065Z,31.37
2023-08-01T16:03:33.538Z,31.50
2023-08-01T16:06:02.291Z,31.67
2023-08-01T16:08:30.741Z,32.14
2023-08-01T16:10:59.098Z,32.84
2023-08-01T16:13:27.683Z,33.51
2023-08-01T16:15:56.224Z,33.87
2023-08-01T16:18:24.629Z,33.93
2023-08-01T16:20:53.218Z,33.56
2023-08-01T16:23:22.476Z,33.17
2023-08-01T16:25:51.057Z,32.82
2023-08-01T16:28:19.467Z,32.59
2023-08-01T16:30:50.158Z,32.16
2023-08-01T16:33:18.908Z,31.85
2023-08-01T16:35:47.318Z,31.61
2023-08-01T16:38:15.668Z,31.29
2023-08-01T16:40:44.072Z,31.04
2023-08-01T16:43:12.339Z,30.93
2023-08-01T16:45:41.054Z,30.77
2023-08-01T16:48:09.609Z,30.64
2023-08-01T16:50:38.136Z,30.53
2023-08-01T16:53:07.017Z,30.40
2023-08-01T16:55:35.456Z,30.23
2023-08-01T16:58:03.925Z,30.00
2023-08-01T17:00:32.398Z,29.88
2023-08-01T17:03:01.483Z,29.76
2023-08-01T17:05:30.099Z,29.58
2023-08-01T17:07:58.551Z,29.52
2023-08-01T17:10:27.562Z,29.41
2023-08-01T17:12:55.967Z,29.33
2023-08-01T17:15:24.464Z,29.21
2023-08-01T17:17:53.334Z,29.10
2023-08-01T17:20:21.892Z,28.99
2023-08-01T17:22:50.347Z,28.83
2023-08-01T17:25:18.802Z,28.75
2023-08-01T17:27:47.364Z,28.67
2023-08-01T17:30:15.841Z,28.57
2023-08-01T17:32:44.545Z,28.50
2023-08-01T17:35:12.987Z,28.46
2023-08-01T17:37:41.440Z,28.39
2023-08-01T17:40:10.326Z,28.29
2023-08-01T17:42:38.685Z,28.19
2023-08-01T17:45:07.718Z,28.14
2023-08-01T17:47:36.180Z,28.06
2023-08-01T17:50:06.532Z,27.99
2023-08-01T17:52:34.944Z,27.93
2023-08-01T17:55:03.799Z,27.85
2023-08-01T17:57:32.171Z,27.77
2023-08-01T18:00:00.829Z,27.69
2023-08-01T18:02:29.979Z,27.64
2023-08-01T18:04:58.499Z,27.58
2023-08-01T18:07:26.971Z,27.48
2023-08-01T18:09:55.436Z,27.40
2023-08-01T18:12:23.856Z,27.36
2023-08-01T18:14:52.500Z,27.29
2023-08-01T18:17:21.826Z,27.24
2023-08-01T18:19:50.322Z,27.18
2023-08-01T18:22:18.769Z,27.07
2023-08-01T18:24:47.489Z,27.07
2023-08-01T18:27:15.984Z,27.02
2023-08-01T18:29:44.435Z,26.95
2023-08-01T18:32:14.063Z,26.87
2023-08-01T18:34:42.467Z,26.84
2023-08-01T18:37:10.870Z,26.81
2023-08-01T18:39:39.259Z,26.76
2023-08-01T18:42:07.673Z,26.73
2023-08-01T18:44:36.029Z,26.67
2023-08-01T18:47:04.534Z,26.65
2023-08-01T18:49:32.920Z,26.60
2023-08-01T18:52:01.424Z,26.55
2023-08-01T18:54:29.931Z,26.50
2023-08-01T18:56:58.820Z,26.46
2023-08-01T18:59:27.447Z,26.44
2023-08-01T19:01:55.900Z,26.42
2023-08-01T19:04:24.397Z,26.39
2023-08-01T19:06:52.924Z,26.36
2023-08-01T19:09:21.884Z,26.34
2023-08-01T19:11:50.502Z,26.29
2023-08-01T19:14:18.882Z,26.27
2023-08-01T19:16:47.394Z,26.23
2023-08-01T19:19:15.878Z,26.20
2023-08-01T19:21:44.393Z,26.16
2023-08-01T19:24:12.790Z,26.13
2023-08-01T19:26:41.620Z,26.08
2023-08-01T19:29:11.091Z,26.03
2023-08-01T19:31:39.569Z,26.03
2023-08-01T19:34:07.946Z,25.98
2023-08-01T19:36:36.448Z,25.94
2023-08-01T19:39:05.033Z,25.91
2023-08-01T19:41:35.360Z,25.88
2023-08-01T19:44:03.953Z,25.83
2023-08-01T19:46:32.410Z,25.79
2023-08-01T19:49:00.841Z,25.75
2023-08-01T19:51:29.185Z,25.71
2023-08-01T19:53:57.670Z,25.67
2023-08-01T19:56:26.102Z,25.64
2023-08-01T19:58:55.511Z,25.59
2023-08-01T20:01:23.936Z,25.54
2023-08-01T20:03:52.455Z,25.48
2023-08-01T20:06:21.037Z,25.46
2023-08-01T20:08:49.447Z,25.40
2023-08-01T20:11:17.913Z,25.35
2023-08-01T20:13:46.550Z,25.36
2023-08-01T20:16:14.980Z,25.29
2023-08-01T20:18:43.342Z,25.29
2023-08-01T20:21:11.813Z,25.27
2023-08-01T20:23:40.429Z,25.25
2023-08-01T20:26:08.946Z,25.17
2023-08-01T20:28:37.567Z,25.17
2023-08-01T20:31:06.326Z,25.14
2023-08-01T20:33:35.145Z,25.10
2023-08-01T20:36:03.758Z,25.07
2023-08-01T20:38:32.415Z,25.02
2023-08-01T20:41:00.827Z,24.92
2023-08-01T20:43:29.739Z,24.91
2023-08-01T20:45:58.193Z,24.90
2023-08-01T20:48:26.547Z,24.87
2023-08-01T20:50:55.124Z,24.83
2023-08-01T20:53:23.539Z,24.82
2023-08-01T20:55:51.910Z,24.78
2023-08-01T20:58:21.622Z,24.76
2023-08-01T21:00:50.128Z,24.75
2023-08-01T21:03:19.500Z,24.75
2023-08-01T21:05:47.925Z,24.73
2023-08-01T21:08:16.468Z,24.74
2023-08-01T21:10:44.879Z,24.67
2023-08-01T21:13:13.292Z,24.72
2023-08-01T21:15:41.730Z,24.70
2023-08-01T21:18:10.282Z,24.67
2023-08-01T21:20:38.799Z,24.67
2023-08-01T21:23:07.260Z,24.66
2023-08-01T21:25:35.660Z,24.66
2023-08-01T21:28:04.319Z,24.65
2023-08-01T21:30:32.819Z,24.63
2023-08-01T21:33:01.230Z,24.59
2023-08-01T21:35:29.785Z,24.57
2023-08-01T21:37:58.200Z,24.54
2023-08-01T21:40:26.579Z,24.55
2023-08-01T21:42:54.972Z,24.54
2023-08-01T21:45:25.483Z,24.50
2023-08-01T21:47:54.003Z,24.47
2023-08-01T21:50:22.735Z,24.44
2023-08-01T21:52:51.180Z,24.40
2023-08-01T21:55:20.648Z,24.35
2023-08-01T21:57:50.136Z,24.29
2023-08-01T22:00:18.558Z,24.31
2023-08-01T22:02:46.997Z,24.31
2023-08-01T22:05:15.760Z,24.29
2023-08-01T22:07:44.278Z,24.24
2023-08-01T22:10:12.745Z,24.22
2023-08-01T22:12:43.710Z,24.17
2023-08-01T22:15:12.161Z,24.13
2023-08-01T22:17:40.894Z,24.09
2023-08-01T22:20:10.809Z,24.04
2023-08-01T22:22:39.352Z,24.01
2023-08-01T22:25:09.258Z,23.96
2023-08-01T22:27:38.149Z,23.98
2023-08-01T22:30:07.135Z,23.94
2023-08-01T22:32:35.717Z,23.92
2023-08-01T22:35:04.556Z,23.85
2023-08-01T22:37:33.161Z,23.85
2023-08-01T22:40:02.779Z,23.82
2023-08-01T22:42:31.210Z,23.79
2023-08-01T22:45:01.618Z,23.78
2023-08-01T22:47:30.203Z,23.80
2023-08-01T22:50:05.505Z,23.82
2023-08-01T22:52:35.218Z,23.80
2023-08-01T22:55:04.885Z,23.82
2023-08-01T22:57:33.383Z,23.77
2023-08-01T23:00:01.781Z,23.75
2023-08-01T23:02:31.121Z,23.75
2023-08-01T23:04:59.551Z,23.74
2023-08-01T23:07:28.112Z,23.72
2023-08-01T23:10:05.448Z,23.72
2023-08-01T23:12:34.279Z,23.72
2023-08-01T23:15:03.350Z,23.71
2023-08-01T23:17:36.365Z,23.71
2023-08-01T23:20:05.448Z,23.67
2023-08-01T23:22:34.953Z,23.71
2023-08-01T23:25:03.658Z,23.72
2023-08-01T23:27:32.175Z,23.73
2023-08-01T23:30:00.583Z,23.72
2023-08-01T23:32:29.101Z,23.74
2023-08-01T23:34:57.538Z,23.71
2023-08-01T23:37:25.928Z,23.61
2023-08-01T23:39:54.348Z,23.64
2023-08-01T23:42:22.780Z,23.62
2023-08-01T23:44:51.369Z,23.58
2023-08-01T23:47:19.833Z,23.56
2023-08-01T23:49:48.758Z,23.52
2023-08-01T23:52:17.190Z,23.51
2023-08-01T23:54:45.591Z,23.47
2023-08-01T23:57:14.401Z,23.45
2023-08-01T23:59:42.767Z,23.42
